Time;durP1;ratioP1;P1;durP2;ratioP2;P2;SDS_P1;SDS_P2;PMS_P1;PMS_P2;Temp;Humidity;BMP_temperature;BMP_pressure;BME280_temperature;BME280_humidity;BME280_pressure;Samples;Min_cycle;Max_cycle;Signal;HPM_P1;HPM_P2
2022/03/08 00:00:28;;;;;;;5.80;4.00;;;3.00;99.90;;;;;;4998841;28;20205;-85
2022/03/08 00:02:55;;;;;;;7.57;4.80;;;3.00;99.90;;;;;;5002897;28;20301;-85
2022/03/08 00:05:22;;;;;;;5.57;3.97;;;3.00;99.90;;;;;;4997551;28;20233;-85
2022/03/08 00:07:50;;;;;;;4.47;3.93;;;3.00;99.90;;;;;;5005182;28;20769;-86
2022/03/08 00:10:17;;;;;;;8.33;4.80;;;3.00;99.90;;;;;;5000702;28;20229;-84
2022/03/08 00:12:48;;;;;;;8.17;4.20;;;3.00;99.90;;;;;;4997315;28;20298;-84
2022/03/08 00:15:19;;;;;;;7.90;4.50;;;3.00;99.90;;;;;;4999782;28;20205;-85
2022/03/08 00:17:47;;;;;;;5.40;4.10;;;3.00;99.90;;;;;;5014009;28;20545;-84
2022/03/08 00:20:15;;;;;;;4.93;3.90;;;3.00;99.90;;;;;;4999021;28;20564;-86
2022/03/08 00:22:42;;;;;;;5.77;3.73;;;3.10;99.90;;;;;;4997748;28;20219;-87
2022/03/08 00:25:11;;;;;;;5.03;3.70;;;3.10;99.90;;;;;;4998480;28;20234;-86
2022/03/08 00:27:42;;;;;;;5.27;4.07;;;3.10;99.90;;;;;;4998042;28;20207;-87
2022/03/08 00:30:09;;;;;;;8.07;4.13;;;3.20;99.90;;;;;;4994964;28;20199;-86
2022/03/08 00:32:36;;;;;;;3.80;3.27;;;3.20;99.90;;;;;;5000855;28;20258;-85
2022/03/08 00:35:04;;;;;;;5.57;3.93;;;3.20;99.90;;;;;;4996518;28;20209;-84
2022/03/08 00:37:30;;;;;;;4.43;3.73;;;3.20;99.90;;;;;;4998871;28;20322;-85
2022/03/08 00:39:58;;;;;;;5.40;4.20;;;3.10;99.90;;;;;;4999006;28;20238;-84
2022/03/08 00:42:24;;;;;;;4.60;3.80;;;3.20;99.90;;;;;;5003072;28;20224;-85
2022/03/08 00:44:51;;;;;;;6.13;3.90;;;3.10;99.90;;;;;;4998269;28;20211;-85
2022/03/08 00:47:18;;;;;;;5.50;3.73;;;3.20;99.90;;;;;;4993537;28;20223;-85
2022/03/08 00:49:45;;;;;;;4.93;4.07;;;3.30;99.90;;;;;;4999724;28;20209;-87
2022/03/08 00:52:15;;;;;;;6.17;3.50;;;3.20;99.90;;;;;;4995653;28;20265;-87
2022/03/08 00:54:42;;;;;;;5.90;3.50;;;3.20;99.90;;;;;;4996869;28;20271;-87
2022/03/08 00:57:09;;;;;;;5.93;3.23;;;3.10;99.90;;;;;;5001248;28;20653;-85
2022/03/08 00:59:36;;;;;;;4.17;3.43;;;3.10;99.90;;;;;;5001622;28;20226;-85
2022/03/08 01:02:04;;;;;;;4.40;3.53;;;3.00;99.90;;;;;;4999713;28;20201;-87
2022/03/08 01:04:31;;;;;;;5.27;3.50;;;3.10;99.90;;;;;;5000402;28;20527;-86
2022/03/08 01:06:58;;;;;;;4.37;3.63;;;3.00;99.90;;;;;;5001249;28;20206;-86
2022/03/08 01:09:25;;;;;;;5.13;3.83;;;2.90;99.90;;;;;;5003474;28;20706;-86
2022/03/08 01:11:52;;;;;;;4.63;3.47;;;2.90;99.90;;;;;;5000262;28;20317;-87
2022/03/08 01:14:19;;;;;;;6.43;3.70;;;2.80;99.90;;;;;;5002849;28;20952;-86
2022/03/08 01:16:46;;;;;;;6.07;4.00;;;2.90;99.90;;;;;;5003667;28;20307;-87
2022/03/08 01:19:13;;;;;;;5.30;3.27;;;2.80;99.90;;;;;;4999542;28;20246;-86
2022/03/08 01:21:41;;;;;;;5.30;3.57;;;2.80;99.90;;;;;;5003733;28;20211;-85
2022/03/08 01:24:08;;;;;;;4.07;3.13;;;2.80;99.90;;;;;;5003012;28;20638;-86
2022/03/08 01:26:35;;;;;;;5.97;4.00;;;2.80;99.90;;;;;;4999047;28;20627;-87
2022/03/08 01:29:03;;;;;;;5.20;3.23;;;2.80;99.90;;;;;;5001811;28;20232;-85
2022/03/08 01:31:30;;;;;;;4.80;3.97;;;2.70;99.90;;;;;;5004523;28;20217;-88
2022/03/08 01:33:57;;;;;;;5.77;3.83;;;2.90;99.90;;;;;;4998764;28;20228;-86
2022/03/08 01:36:25;;;;;;;7.33;4.03;;;2.90;99.90;;;;;;5007661;28;20210;-86
2022/03/08 01:38:52;;;;;;;4.17;3.30;;;2.90;99.90;;;;;;5000473;28;20194;-88
2022/03/08 01:41:20;;;;;;;5.60;3.77;;;2.80;99.90;;;;;;5001672;28;20261;-87
2022/03/08 01:43:47;;;;;;;5.93;4.10;;;2.70;99.90;;;;;;4999460;28;20216;-87
2022/03/08 01:46:15;;;;;;;6.97;4.13;;;2.70;99.90;;;;;;5002586;28;20198;-87
2022/03/08 01:48:44;;;;;;;6.37;3.50;;;2.70;99.90;;;;;;5001040;28;20200;-87
2022/03/08 01:51:13;;;;;;;4.47;3.37;;;2.80;99.90;;;;;;4998456;28;20328;-86
2022/03/08 01:53:40;;;;;;;5.43;3.87;;;2.80;99.90;;;;;;5001529;28;20219;-86
2022/03/08 01:56:10;;;;;;;6.50;3.70;;;2.90;99.90;;;;;;5002021;28;20600;-84
2022/03/08 01:58:38;;;;;;;5.40;3.17;;;2.80;99.90;;;;;;4998412;28;20252;-85
2022/03/08 02:01:06;;;;;;;6.57;3.87;;;2.80;99.90;;;;;;4998240;28;20211;-87
2022/03/08 02:03:34;;;;;;;4.60;3.67;;;2.80;99.90;;;;;;5001678;28;20218;-86
2022/03/08 02:06:03;;;;;;;4.53;3.47;;;2.70;99.90;;;;;;5000189;28;20293;-84
2022/03/08 02:08:31;;;;;;;4.87;3.37;;;2.80;99.90;;;;;;5000269;28;20326;-85
2022/03/08 02:10:59;;;;;;;5.43;3.70;;;2.70;99.90;;;;;;4999351;28;20858;-85
2022/03/08 02:13:26;;;;;;;4.67;3.53;;;2.60;99.90;;;;;;5001549;28;20374;-86
2022/03/08 02:15:54;;;;;;;4.30;3.27;;;2.60;99.90;;;;;;5001512;28;20905;-86
2022/03/08 02:18:22;;;;;;;4.90;3.57;;;2.60;99.90;;;;;;5004941;28;20559;-86
2022/03/08 02:20:50;;;;;;;4.63;3.70;;;2.60;99.90;;;;;;5012491;28;20206;-85
2022/03/08 02:23:17;;;;;;;5.57;3.70;;;2.60;99.90;;;;;;5003233;28;20654;-85
2022/03/08 02:25:44;;;;;;;7.97;4.10;;;2.60;99.90;;;;;;5005596;28;20221;-86
2022/03/08 02:28:11;;;;;;;5.23;3.53;;;2.60;99.90;;;;;;5006650;28;20206;-85
2022/03/08 02:30:38;;;;;;;4.57;3.30;;;2.70;99.90;;;;;;5022281;28;20198;-85
2022/03/08 02:33:08;;;;;;;5.20;3.97;;;2.60;99.90;;;;;;5003344;28;20864;-85
2022/03/08 02:35:34;;;;;;;6.00;4.23;;;2.70;99.90;;;;;;5018473;28;20296;-85
2022/03/08 02:38:05;;;;;;;5.70;4.07;;;2.70;99.90;;;;;;5003996;28;20251;-86
2022/03/08 02:40:36;;;;;;;3.60;3.13;;;2.70;99.90;;;;;;5021846;28;20212;-87
2022/03/08 02:43:05;;;;;;;6.57;4.03;;;2.80;99.90;;;;;;5004875;28;20319;-86
2022/03/08 02:45:33;;;;;;;6.60;4.20;;;2.80;99.90;;;;;;5005141;28;20586;-86
2022/03/08 02:48:00;;;;;;;6.30;4.10;;;2.80;99.90;;;;;;5003166;28;20209;-85
2022/03/08 02:50:27;;;;;;;6.37;3.70;;;2.90;99.90;;;;;;5004980;28;20251;-87
2022/03/08 02:52:57;;;;;;;6.27;3.57;;;3.00;99.90;;;;;;5005042;28;20837;-86
2022/03/08 02:55:27;;;;;;;5.20;3.70;;;2.90;99.90;;;;;;5022865;28;20354;-86
2022/03/08 02:57:55;;;;;;;5.07;3.70;;;2.80;99.90;;;;;;5018286;28;20232;-85
2022/03/08 03:00:23;;;;;;;4.87;3.53;;;2.90;99.90;;;;;;4999890;28;20232;-85
2022/03/08 03:02:51;;;;;;;5.27;3.90;;;2.80;99.90;;;;;;5002745;28;20241;-85
2022/03/08 03:05:18;;;;;;;5.87;4.67;;;2.80;99.90;;;;;;5001464;28;20224;-84
2022/03/08 03:07:45;;;;;;;5.77;3.97;;;2.80;99.90;;;;;;5005096;28;20637;-86
2022/03/08 03:10:16;;;;;;;9.57;4.03;;;2.60;99.90;;;;;;5002437;28;20231;-85
2022/03/08 03:12:43;;;;;;;4.27;3.73;;;2.60;99.90;;;;;;4999759;28;20207;-85
2022/03/08 03:15:11;;;;;;;5.07;3.73;;;2.50;99.90;;;;;;5004582;28;20314;-85
2022/03/08 03:17:38;;;;;;;5.50;4.13;;;2.50;99.90;;;;;;4999220;28;20236;-85
2022/03/08 03:20:08;;;;;;;5.63;4.17;;;2.40;99.90;;;;;;5003790;28;20219;-84
2022/03/08 03:22:35;;;;;;;8.43;4.27;;;2.40;99.90;;;;;;4998032;28;20548;-87
2022/03/08 03:25:04;;;;;;;5.20;4.20;;;2.50;99.90;;;;;;4998934;28;20263;-86
2022/03/08 03:27:31;;;;;;;5.90;4.00;;;2.60;99.90;;;;;;4999286;28;20288;-85
2022/03/08 03:29:58;;;;;;;7.20;3.80;;;2.70;99.90;;;;;;4999336;28;20231;-85
2022/03/08 03:32:25;;;;;;;5.17;3.80;;;2.70;99.90;;;;;;5011665;28;20202;-85
2022/03/08 03:34:52;;;;;;;5.40;4.10;;;2.60;99.90;;;;;;4994197;28;20220;-85
2022/03/08 03:37:20;;;;;;;5.10;4.60;;;2.70;99.90;;;;;;4999232;28;20673;-85
2022/03/08 03:39:47;;;;;;;5.30;4.47;;;2.70;99.90;;;;;;5004108;28;20197;-86
2022/03/08 03:42:13;;;;;;;8.93;4.27;;;2.60;99.90;;;;;;4995739;28;20307;-86
2022/03/08 03:44:40;;;;;;;5.23;3.77;;;2.50;99.90;;;;;;4997249;28;20275;-86
2022/03/08 03:47:08;;;;;;;6.13;4.07;;;2.60;99.90;;;;;;4997413;28;20199;-88
2022/03/08 03:49:35;;;;;;;6.60;4.30;;;2.60;99.90;;;;;;4996364;28;20266;-86
2022/03/08 03:52:03;;;;;;;6.33;4.33;;;2.60;99.90;;;;;;4993394;28;20212;-86
2022/03/08 03:54:30;;;;;;;7.37;4.47;;;2.60;99.90;;;;;;5002260;28;20209;-85
2022/03/08 03:56:57;;;;;;;5.73;4.03;;;2.50;99.90;;;;;;4997357;28;20354;-86
2022/03/08 03:59:24;;;;;;;5.17;3.57;;;2.40;99.90;;;;;;4999872;28;21070;-88
2022/03/08 04:01:51;;;;;;;6.27;4.37;;;2.30;99.90;;;;;;4996146;28;20975;-87
2022/03/08 04:04:18;;;;;;;5.37;4.10;;;2.30;99.90;;;;;;4999958;28;20214;-86
2022/03/08 04:06:45;;;;;;;5.33;4.17;;;2.30;99.90;;;;;;4997182;28;20212;-86
2022/03/08 04:09:13;;;;;;;5.47;4.10;;;2.30;99.90;;;;;;4995178;28;20711;-86
2022/03/08 04:11:40;;;;;;;5.40;3.77;;;2.20;99.90;;;;;;4989021;28;21006;-88
2022/03/08 04:14:07;;;;;;;7.33;4.50;;;2.00;99.90;;;;;;4996868;28;20689;-86
2022/03/08 04:16:33;;;;;;;7.03;4.37;;;1.90;99.90;;;;;;4995855;28;20277;-86
2022/03/08 04:19:00;;;;;;;6.80;4.43;;;2.00;99.90;;;;;;4993714;28;20271;-86
2022/03/08 04:21:29;;;;;;;6.37;4.07;;;2.10;99.90;;;;;;4996839;28;20333;-86
2022/03/08 04:23:56;;;;;;;5.87;4.30;;;2.10;99.90;;;;;;4995819;28;20329;-86
2022/03/08 04:26:22;;;;;;;5.23;4.10;;;2.00;99.90;;;;;;4996688;28;20313;-85
2022/03/08 04:28:49;;;;;;;6.03;4.67;;;1.80;99.90;;;;;;4997367;28;20320;-85
2022/03/08 04:31:18;;;;;;;7.80;4.47;;;1.70;99.90;;;;;;4992325;28;20301;-87
2022/03/08 04:33:44;;;;;;;9.37;4.60;;;1.60;99.90;;;;;;4995023;28;20728;-86
2022/03/08 04:36:11;;;;;;;6.93;4.37;;;1.50;99.90;;;;;;4994295;28;20209;-87
2022/03/08 04:38:38;;;;;;;6.30;4.50;;;1.50;99.90;;;;;;4998278;28;20282;-86
2022/03/08 04:41:06;;;;;;;5.97;4.57;;;1.40;99.90;;;;;;5011651;28;20296;-85
2022/03/08 04:43:33;;;;;;;8.27;5.10;;;1.50;99.90;;;;;;4998819;28;20638;-87
2022/03/08 04:46:00;;;;;;;4.97;4.20;;;1.50;99.90;;;;;;4996109;28;20229;-86
2022/03/08 04:48:28;;;;;;;9.57;4.90;;;1.40;99.90;;;;;;4991739;28;22018;-86
2022/03/08 04:50:54;;;;;;;6.73;4.10;;;1.50;99.90;;;;;;4994892;28;20296;-87
2022/03/08 04:53:21;;;;;;;5.00;4.07;;;1.50;99.90;;;;;;4996617;28;20214;-87
2022/03/08 04:55:48;;;;;;;8.27;4.27;;;1.60;99.90;;;;;;4999564;28;20737;-86
2022/03/08 04:58:15;;;;;;;7.97;4.50;;;1.60;99.90;;;;;;4997615;28;20228;-86
2022/03/08 05:00:42;;;;;;;6.63;4.77;;;1.70;99.90;;;;;;4999323;28;20275;-85
2022/03/08 05:03:09;;;;;;;5.60;4.57;;;1.70;99.90;;;;;;4996461;28;20553;-88
2022/03/08 05:05:38;;;;;;;7.13;4.13;;;1.80;99.90;;;;;;4998980;28;20246;-86
2022/03/08 05:08:06;;;;;;;7.20;5.20;;;1.80;99.90;;;;;;4996226;28;20230;-87
2022/03/08 05:10:33;;;;;;;5.63;4.10;;;1.80;99.90;;;;;;4999274;28;20225;-86
2022/03/08 05:13:01;;;;;;;5.83;4.30;;;1.80;99.90;;;;;;4998554;28;20231;-85
2022/03/08 05:15:28;;;;;;;5.37;4.30;;;1.60;99.90;;;;;;4996857;28;20213;-86
2022/03/08 05:17:55;;;;;;;5.20;4.30;;;1.70;99.90;;;;;;4996920;28;20258;-85
2022/03/08 05:20:22;;;;;;;5.77;4.73;;;1.70;99.90;;;;;;4998011;28;20609;-85
2022/03/08 05:22:48;;;;;;;5.60;4.07;;;1.60;99.90;;;;;;4999099;28;20307;-85
2022/03/08 05:25:15;;;;;;;7.10;4.03;;;1.70;99.90;;;;;;4995620;28;20339;-86
2022/03/08 05:27:42;;;;;;;6.83;4.63;;;1.60;99.90;;;;;;4997640;28;20313;-85
2022/03/08 05:30:10;;;;;;;7.07;4.97;;;1.60;99.90;;;;;;5003137;28;20217;-85
2022/03/08 05:32:37;;;;;;;8.33;4.93;;;1.50;99.90;;;;;;5000140;28;20215;-86
2022/03/08 05:35:05;;;;;;;8.37;4.83;;;1.50;99.90;;;;;;4998691;28;20242;-86
2022/03/08 05:37:33;;;;;;;6.60;4.67;;;1.40;99.90;;;;;;4984812;28;20237;-86
2022/03/08 05:40:00;;;;;;;7.33;4.67;;;1.40;99.90;;;;;;5006884;28;20270;-85
2022/03/08 05:42:27;;;;;;;8.00;5.07;;;1.40;99.90;;;;;;5014855;28;20207;-84
2022/03/08 05:44:53;;;;;;;7.93;5.43;;;1.30;99.90;;;;;;5002901;28;20215;-87
2022/03/08 05:47:20;;;;;;;6.50;4.77;;;1.40;99.90;;;;;;5010780;28;20205;-85
2022/03/08 05:49:47;;;;;;;10.47;5.20;;;1.30;99.90;;;;;;5004414;28;20668;-86
2022/03/08 05:52:14;;;;;;;10.77;5.60;;;1.40;99.90;;;;;;5007805;28;20587;-87
2022/03/08 05:54:41;;;;;;;8.73;5.20;;;1.50;99.90;;;;;;5002228;28;20593;-86
2022/03/08 05:57:08;;;;;;;10.27;4.93;;;1.60;99.90;;;;;;5000842;28;20667;-85
2022/03/08 05:59:35;;;;;;;5.83;5.20;;;1.60;99.90;;;;;;5000430;28;20240;-84
2022/03/08 06:02:01;;;;;;;9.53;5.57;;;1.60;99.90;;;;;;4986136;28;20209;-84
2022/03/08 06:04:29;;;;;;;6.60;4.10;;;1.50;99.90;;;;;;5015074;28;20227;-87
2022/03/08 06:06:55;;;;;;;7.10;4.90;;;1.50;99.90;;;;;;5018310;28;20221;-85
2022/03/08 06:09:22;;;;;;;7.53;4.73;;;1.40;99.90;;;;;;5005202;28;20234;-85
2022/03/08 06:11:49;;;;;;;6.57;4.43;;;1.40;99.90;;;;;;5014473;28;20207;-85
2022/03/08 06:14:17;;;;;;;6.77;5.00;;;1.40;99.90;;;;;;5007284;28;20232;-87
2022/03/08 06:16:44;;;;;;;6.87;5.17;;;1.40;99.90;;;;;;5001388;28;20290;-86
2022/03/08 06:19:11;;;;;;;7.73;4.70;;;1.40;99.90;;;;;;5001176;28;20215;-86
2022/03/08 06:21:38;;;;;;;7.57;5.07;;;1.30;99.90;;;;;;5000344;28;20297;-85
2022/03/08 06:24:05;;;;;;;6.67;4.97;;;1.20;99.90;;;;;;5004952;28;20626;-88
2022/03/08 06:26:32;;;;;;;7.33;5.03;;;1.20;99.90;;;;;;5002645;28;20218;-87
2022/03/08 06:29:00;;;;;;;8.17;5.13;;;1.20;99.90;;;;;;5000870;28;20200;-86
2022/03/08 06:31:26;;;;;;;8.60;4.60;;;1.20;99.90;;;;;;5003195;28;20211;-87
2022/03/08 06:33:53;;;;;;;9.70;5.60;;;1.30;99.90;;;;;;5002524;28;20222;-85
2022/03/08 06:36:20;;;;;;;8.83;5.33;;;1.30;99.90;;;;;;5003490;28;20204;-84
2022/03/08 06:38:47;;;;;;;5.87;4.53;;;1.30;99.90;;;;;;5001558;28;20211;-83
2022/03/08 06:41:15;;;;;;;5.27;4.47;;;1.40;99.90;;;;;;5001155;28;20226;-82
2022/03/08 06:43:42;;;;;;;6.20;4.57;;;1.40;99.90;;;;;;4990563;28;20366;-81
2022/03/08 06:46:10;;;;;;;6.17;4.97;;;1.40;99.90;;;;;;4998449;28;20309;-83
2022/03/08 06:48:38;;;;;;;6.40;4.77;;;1.50;99.90;;;;;;4998294;28;20190;-87
2022/03/08 06:51:05;;;;;;;7.30;5.07;;;1.60;99.90;;;;;;4997890;28;20253;-84
2022/03/08 06:53:32;;;;;;;7.13;5.07;;;1.70;99.90;;;;;;4999296;28;20208;-89
2022/03/08 06:55:59;;;;;;;6.43;4.63;;;1.80;99.90;;;;;;4999270;28;20602;-86
2022/03/08 06:58:27;;;;;;;7.43;4.83;;;1.90;99.90;;;;;;5001952;28;20313;-86
2022/03/08 07:00:54;;;;;;;6.97;4.67;;;2.10;99.90;;;;;;4998384;28;20629;-87
2022/03/08 07:03:21;;;;;;;9.07;4.77;;;2.20;99.90;;;;;;5009871;28;20243;-88
2022/03/08 07:05:49;;;;;;;7.23;4.70;;;2.40;99.90;;;;;;4999010;28;20363;-87
2022/03/08 07:08:16;;;;;;;10.07;4.77;;;2.50;99.90;;;;;;5000403;28;20632;-86
2022/03/08 07:10:43;;;;;;;6.87;5.10;;;2.60;99.90;;;;;;5000854;28;20212;-87
2022/03/08 07:13:09;;;;;;;5.87;4.87;;;2.80;99.90;;;;;;4999817;28;20229;-85
2022/03/08 07:15:37;;;;;;;6.03;4.47;;;2.90;99.90;;;;;;5002735;28;20920;-85
2022/03/08 07:18:05;;;;;;;9.33;5.23;;;2.80;99.90;;;;;;4999712;28;20214;-85
2022/03/08 07:20:32;;;;;;;7.50;5.57;;;2.80;99.90;;;;;;4999091;28;20237;-85
2022/03/08 07:22:58;;;;;;;6.33;4.67;;;2.90;99.90;;;;;;5003189;28;20209;-82
2022/03/08 07:25:25;;;;;;;6.03;4.73;;;2.90;99.90;;;;;;4993955;28;20225;-83
2022/03/08 07:27:52;;;;;;;6.03;4.83;;;3.00;99.90;;;;;;5001084;28;20565;-85
2022/03/08 07:30:34;;;;;;;5.27;4.00;;;3.10;99.90;;;;;;4998956;28;20212;-88
2022/03/08 07:33:01;;;;;;;7.87;4.73;;;3.30;99.90;;;;;;4996982;28;20215;-82
2022/03/08 07:35:33;;;;;;;6.13;4.80;;;3.40;99.90;;;;;;4999377;28;20626;-83
2022/03/08 07:38:00;;;;;;;7.23;4.60;;;3.60;99.90;;;;;;5003482;28;20695;-84
2022/03/08 07:40:29;;;;;;;5.87;4.60;;;3.70;99.90;;;;;;5001983;28;20242;-82
2022/03/08 07:42:55;;;;;;;6.13;4.20;;;3.70;99.90;;;;;;4998330;28;20263;-83
2022/03/08 07:45:22;;;;;;;7.67;4.53;;;3.80;99.90;;;;;;5008754;28;20248;-89
2022/03/08 07:47:49;;;;;;;6.93;4.80;;;4.00;99.90;;;;;;4998785;28;20228;-89
2022/03/08 07:50:17;;;;;;;6.83;5.10;;;4.10;99.90;;;;;;5003732;28;20265;-89
2022/03/08 07:52:47;;;;;;;5.37;4.53;;;4.20;99.90;;;;;;5015673;28;20256;-88
2022/03/08 07:55:14;;;;;;;5.50;4.37;;;4.20;99.90;;;;;;5002448;28;20234;-88
2022/03/08 07:57:41;;;;;;;9.07;4.77;;;4.40;99.90;;;;;;5001755;28;20205;-87
2022/03/08 08:00:28;;;;;;;8.57;4.80;;;4.70;99.90;;;;;;4998241;28;20231;-87
2022/03/08 08:02:55;;;;;;;9.07;4.87;;;4.80;99.90;;;;;;5015519;28;20221;-86
2022/03/08 08:05:22;;;;;;;5.67;4.90;;;4.90;99.90;;;;;;5005413;28;20422;-88
2022/03/08 08:07:49;;;;;;;8.07;6.10;;;5.10;99.90;;;;;;5004235;28;20280;-88
2022/03/08 08:10:16;;;;;;;7.47;4.67;;;5.40;99.90;;;;;;4996552;28;20252;-86
2022/03/08 08:12:43;;;;;;;7.40;4.73;;;5.50;99.90;;;;;;5003414;28;20228;-88
2022/03/08 08:15:10;;;;;;;6.10;4.60;;;5.40;99.90;;;;;;5005575;28;20271;-89
2022/03/08 08:17:38;;;;;;;7.53;4.60;;;5.40;99.90;;;;;;5000393;28;20202;-89
2022/03/08 08:20:05;;;;;;;5.60;4.47;;;5.70;99.90;;;;;;5006817;28;20673;-88
2022/03/08 08:22:32;;;;;;;7.40;4.70;;;5.50;99.90;;;;;;5002970;28;20209;-90
2022/03/08 08:24:59;;;;;;;6.97;4.67;;;6.00;99.90;;;;;;5022413;28;20232;-89
2022/03/08 08:27:26;;;;;;;5.37;4.47;;;6.00;99.90;;;;;;5002963;28;20291;-89
2022/03/08 08:29:52;;;;;;;4.73;4.03;;;6.20;99.90;;;;;;5004963;28;20216;-91
2022/03/08 08:32:20;;;;;;;5.73;4.73;;;6.30;99.90;;;;;;5001367;28;20206;-87
2022/03/08 08:34:47;;;;;;;7.87;4.97;;;6.30;99.90;;;;;;5011156;28;20206;-92
2022/03/08 08:37:14;;;;;;;7.53;4.63;;;6.60;99.90;;;;;;5006016;28;20956;-90
2022/03/08 08:39:41;;;;;;;6.37;4.60;;;6.70;99.90;;;;;;5009057;28;20211;-90
2022/03/08 08:42:08;;;;;;;7.30;4.37;;;6.60;99.90;;;;;;5009564;28;20201;-88
2022/03/08 08:44:39;;;;;;;5.97;4.60;;;6.70;99.90;;;;;;4998342;28;20260;-88
2022/03/08 08:47:06;;;;;;;6.57;4.23;;;6.70;99.90;;;;;;5001661;28;20226;-87
2022/03/08 08:49:33;;;;;;;5.10;4.47;;;7.00;99.90;;;;;;5001808;28;20221;-88
2022/03/08 08:52:03;;;;;;;6.03;4.67;;;7.30;99.90;;;;;;5002012;28;20300;-85
2022/03/08 08:54:31;;;;;;;7.87;4.33;;;7.30;99.90;;;;;;5002061;28;20672;-89
2022/03/08 08:56:57;;;;;;;10.73;4.80;;;7.10;99.90;;;;;;4999525;28;20212;-88
2022/03/08 08:59:24;;;;;;;5.63;4.47;;;7.70;99.90;;;;;;5000859;28;20234;-87
2022/03/08 09:01:52;;;;;;;6.90;4.40;;;7.80;99.90;;;;;;5003272;28;20233;-87
2022/03/08 09:04:20;;;;;;;7.40;4.57;;;7.60;99.90;;;;;;5000640;28;20247;-86
2022/03/08 09:06:47;;;;;;;4.67;4.27;;;7.70;99.90;;;;;;5005472;28;20236;-86
2022/03/08 09:09:15;;;;;;;7.60;4.30;;;7.90;99.90;;;;;;5006553;28;20310;-87
2022/03/08 09:11:42;;;;;;;4.97;3.93;;;8.00;99.90;;;;;;5014069;28;20521;-86
2022/03/08 09:14:09;;;;;;;4.67;3.97;;;7.80;99.90;;;;;;5000513;28;20272;-88
2022/03/08 09:16:36;;;;;;;6.03;4.83;;;8.00;99.90;;;;;;4997926;28;20594;-86
2022/03/08 09:19:03;;;;;;;7.00;4.57;;;8.30;99.90;;;;;;5004609;28;20284;-88
2022/03/08 09:21:31;;;;;;;5.20;4.40;;;8.30;99.90;;;;;;5008896;28;20264;-86
2022/03/08 09:23:58;;;;;;;7.83;4.80;;;8.70;99.90;;;;;;5009339;28;20236;-85
2022/03/08 09:26:25;;;;;;;5.43;4.03;;;8.80;99.90;;;;;;5001943;28;20689;-87
2022/03/08 09:28:52;;;;;;;5.20;4.37;;;8.90;99.90;;;;;;5001117;28;20614;-86
2022/03/08 09:31:20;;;;;;;6.07;4.50;;;8.40;99.90;;;;;;4987827;28;20278;-87
2022/03/08 09:33:47;;;;;;;4.93;3.60;;;8.50;99.90;;;;;;5001573;28;20200;-85
2022/03/08 09:36:14;;;;;;;6.67;4.27;;;8.70;99.90;;;;;;5006782;28;20248;-88
2022/03/08 09:38:41;;;;;;;4.90;4.07;;;8.30;99.90;;;;;;5005059;28;20284;-88
2022/03/08 09:41:10;;;;;;;7.53;3.87;;;8.70;99.90;;;;;;4986626;28;20305;-87
2022/03/08 09:43:38;;;;;;;7.20;4.30;;;9.10;99.90;;;;;;4988431;28;20659;-86
2022/03/08 09:46:06;;;;;;;5.93;4.27;;;9.40;99.90;;;;;;5005195;28;20212;-84
2022/03/08 09:48:33;;;;;;;8.10;4.37;;;9.10;99.90;;;;;;5004843;28;20267;-88
2022/03/08 09:51:02;;;;;;;7.57;4.00;;;9.20;99.90;;;;;;5000394;28;20211;-88
2022/03/08 09:53:31;;;;;;;6.17;4.30;;;9.50;99.90;;;;;;5006649;28;20355;-86
2022/03/08 09:56:02;;;;;;;5.13;4.23;;;8.90;99.90;;;;;;5007249;28;20214;-85
2022/03/08 09:58:33;;;;;;;4.83;4.20;;;9.10;99.90;;;;;;5001033;28;20230;-87
2022/03/08 10:01:00;;;;;;;4.70;4.10;;;9.10;99.90;;;;;;5002378;28;20287;-90
2022/03/08 10:03:39;;;;;;;5.30;4.10;;;9.10;99.90;;;;;;5001616;28;20239;-88
2022/03/08 10:06:08;;;;;;;6.87;3.50;;;9.00;99.90;;;;;;5001595;28;21140;-88
2022/03/08 10:08:35;;;;;;;6.83;3.83;;;8.90;99.90;;;;;;5003303;28;20293;-91
2022/03/08 10:11:09;;;;;;;4.87;4.07;;;8.40;99.90;;;;;;4998447;28;20257;-87
2022/03/08 10:13:50;;;;;;;6.60;4.10;;;9.00;99.90;;;;;;5006754;28;20198;-86
2022/03/08 10:16:30;;;;;;;6.20;4.40;;;9.20;99.90;;;;;;5006243;28;20224;-85
2022/03/08 10:19:01;;;;;;;5.07;4.10;;;9.10;99.90;;;;;;5015534;28;20647;-88
2022/03/08 10:21:32;;;;;;;6.43;4.37;;;9.00;99.90;;;;;;4999531;28;20227;-89
2022/03/08 10:24:05;;;;;;;6.57;4.17;;;8.90;99.90;;;;;;5000832;28;20232;-85
2022/03/08 10:26:55;;;;;;;6.33;4.03;;;9.10;99.90;;;;;;5001116;28;20244;-88
2022/03/08 10:29:25;;;;;;;5.17;3.67;;;9.30;99.90;;;;;;5004364;28;20320;-88
2022/03/08 10:32:17;;;;;;;4.13;3.60;;;9.10;99.90;;;;;;5004168;28;20233;-89
2022/03/08 10:34:54;;;;;;;6.07;3.77;;;8.70;99.90;;;;;;5004349;28;20282;-88
2022/03/08 10:37:24;;;;;;;5.17;4.20;;;8.90;99.90;;;;;;5004153;28;20252;-87
2022/03/08 10:39:56;;;;;;;5.33;3.50;;;8.80;99.90;;;;;;5002016;28;20209;-87
2022/03/08 10:42:29;;;;;;;4.70;3.77;;;8.80;99.90;;;;;;5000487;28;20668;-87
2022/03/08 10:45:11;;;;;;;5.63;3.67;;;9.00;99.90;;;;;;5001849;28;20219;-86
2022/03/08 10:47:44;;;;;;;5.27;3.50;;;9.30;99.90;;;;;;5009275;28;20211;-85
2022/03/08 10:50:14;;;;;;;4.17;3.23;;;9.20;99.90;;;;;;4997678;28;20202;-85
2022/03/08 10:52:44;;;;;;;5.57;3.97;;;9.10;99.90;;;;;;5002059;28;20221;-90
2022/03/08 10:55:20;;;;;;;5.07;3.70;;;9.20;99.90;;;;;;4999845;28;20828;-88
2022/03/08 10:57:55;;;;;;;7.07;3.70;;;9.30;99.90;;;;;;5003474;28;20233;-91
2022/03/08 11:00:26;;;;;;;6.13;3.73;;;9.20;99.90;;;;;;5003577;28;20214;-86
2022/03/08 11:02:56;;;;;;;4.10;3.60;;;9.20;99.90;;;;;;4990587;28;20206;-87
2022/03/08 11:05:30;;;;;;;4.63;3.50;;;9.40;99.90;;;;;;5002760;28;20646;-84
2022/03/08 11:07:57;;;;;;;4.10;3.70;;;9.30;99.90;;;;;;5002481;28;20227;-85
2022/03/08 11:10:27;;;;;;;5.07;3.10;;;9.60;99.90;;;;;;5003570;28;20239;-86
2022/03/08 11:12:56;;;;;;;3.83;3.37;;;9.50;99.90;;;;;;4987591;28;20255;-87
2022/03/08 11:15:24;;;;;;;4.40;3.97;;;9.50;99.90;;;;;;5005113;28;20212;-87
2022/03/08 11:17:53;;;;;;;4.17;3.50;;;9.60;99.90;;;;;;5002506;28;20206;-85
2022/03/08 11:20:22;;;;;;;4.73;3.83;;;9.70;99.90;;;;;;5014422;28;20632;-84
2022/03/08 11:22:53;;;;;;;7.13;4.27;;;9.80;99.90;;;;;;4999070;28;20255;-85
2022/03/08 11:25:21;;;;;;;4.83;3.80;;;9.80;99.90;;;;;;5000809;28;20345;-83
2022/03/08 11:28:09;;;;;;;4.20;3.63;;;10.10;99.90;;;;;;5003617;28;20339;-85
2022/03/08 11:30:52;;;;;;;5.07;4.13;;;9.90;99.90;;;;;;4997894;28;20208;-84
2022/03/08 11:33:38;;;;;;;5.20;3.90;;;10.10;99.90;;;;;;4998156;28;20218;-84
2022/03/08 11:36:28;;;;;;;4.30;3.90;;;10.10;99.90;;;;;;5000678;28;20228;-84
2022/03/08 11:39:14;;;;;;;5.37;3.80;;;10.00;99.90;;;;;;4996284;28;20210;-86
2022/03/08 11:41:44;;;;;;;4.30;3.67;;;10.00;99.90;;;;;;5003398;28;20300;-85
2022/03/08 11:44:21;;;;;;;6.87;3.60;;;10.20;99.90;;;;;;5000767;28;20732;-85
2022/03/08 11:46:59;;;;;;;4.43;3.67;;;10.30;99.90;;;;;;4999287;28;20709;-86
2022/03/08 11:49:54;;;;;;;5.13;3.80;;;10.50;99.90;;;;;;5001018;28;20209;-86
2022/03/08 11:52:36;;;;;;;3.97;3.43;;;10.50;99.90;;;;;;5000146;28;20209;-85
2022/03/08 11:55:08;;;;;;;4.83;4.40;;;10.50;99.90;;;;;;5002589;28;20205;-86
2022/03/08 11:57:48;;;;;;;4.43;4.03;;;10.50;99.90;;;;;;5007202;28;20224;-86
2022/03/08 12:00:31;;;;;;;3.90;3.43;;;10.60;99.90;;;;;;5001180;28;20214;-87
2022/03/08 12:03:02;;;;;;;5.93;3.50;;;10.80;99.90;;;;;;4987527;28;20238;-86
2022/03/08 12:05:42;;;;;;;5.50;4.03;;;11.00;99.90;;;;;;5002436;28;20198;-84
2022/03/08 12:08:21;;;;;;;7.00;4.10;;;10.70;99.90;;;;;;5016463;28;20286;-84
2022/03/08 12:10:50;;;;;;;5.83;3.73;;;11.10;99.90;;;;;;5000829;28;20234;-87
2022/03/08 12:13:38;;;;;;;4.17;3.47;;;11.10;99.90;;;;;;5002686;28;20244;-83
2022/03/08 12:16:14;;;;;;;4.67;3.90;;;11.30;99.90;;;;;;5001327;28;20201;-83
2022/03/08 12:18:41;;;;;;;6.47;4.00;;;11.30;99.90;;;;;;5001389;28;20300;-84
2022/03/08 12:21:17;;;;;;;3.70;3.40;;;11.60;99.90;;;;;;4991998;28;20211;-84
2022/03/08 12:24:24;;;;;;;6.33;3.93;;;11.70;99.90;;;;;;4998026;28;20226;-83
2022/03/08 12:26:57;;;;;;;4.70;4.00;;;12.10;99.90;;;;;;4997838;28;20284;-84
2022/03/08 12:30:03;;;;;;;6.57;4.10;;;12.20;99.90;;;;;;4999304;28;20206;-84
2022/03/08 12:32:42;;;;;;;5.03;3.70;;;11.70;99.90;;;;;;4994284;28;20209;-84
2022/03/08 12:35:14;;;;;;;4.47;3.77;;;12.10;99.90;;;;;;4995142;28;20319;-83
2022/03/08 12:37:47;;;;;;;4.97;4.47;;;12.10;99.90;;;;;;5001872;28;20289;-83
2022/03/08 12:40:15;;;;;;;4.33;3.87;;;12.20;99.90;;;;;;5002427;28;20212;-84
2022/03/08 12:43:03;;;;;;;5.40;4.03;;;12.30;99.90;;;;;;4995814;28;20230;-83
2022/03/08 12:45:36;;;;;;;3.73;3.37;;;12.20;99.90;;;;;;5010927;28;20215;-84
2022/03/08 12:48:13;;;;;;;4.63;4.17;;;12.00;99.90;;;;;;5000928;28;20216;-86
2022/03/08 12:50:46;;;;;;;4.07;3.60;;;12.70;99.90;;;;;;4997929;28;20295;-84
2022/03/08 12:53:28;;;;;;;5.83;3.93;;;12.40;99.90;;;;;;4999944;28;20212;-84
2022/03/08 12:56:04;;;;;;;5.30;3.67;;;12.50;99.90;;;;;;5007565;28;20220;-83
2022/03/08 12:58:35;;;;;;;4.20;3.80;;;12.70;99.90;;;;;;5014429;28;20227;-81
2022/03/08 13:01:05;;;;;;;4.00;3.50;;;12.60;99.90;;;;;;4999149;28;20220;-83
2022/03/08 13:03:34;;;;;;;7.37;3.90;;;12.80;99.90;;;;;;4999026;28;20306;-83
2022/03/08 13:06:08;;;;;;;5.33;4.00;;;12.50;99.90;;;;;;5003072;28;20239;-83